Silver Lake, Minnesota
Current Conditions -  °F | °C
As of 12:12 PM on Wednesday 28 Jan 2015 (Local Time) from KHCD Reporting Station
Haze Haze  
Wind Chill: 22°   Ceiling: 600
Heat Index: 32°   Visibility: 4mi
Dew Point: 31°   Wind: 14mph
Humidity: 94%   Direction: 130°SE
Pressure: 29.84"   Gusts: NA
Location:  44.9°N, 94.2°W
Report Text: KHCD 281812Z AUTO 13012KT 4SM BR OVC006 00/M01 A2984 RMK AO2 T00001008
Loading
Personal Weather Stations






























Interactive Weather Map New forecast layout! Learn more

10-Day Weather Forecast

Advertisements
Track Severe Weather on mobile